Time;durP1;ratioP1;P1;durP2;ratioP2;P2;SDS_P1;SDS_P2;PMS_P1;PMS_P2;Temp;Humidity;BMP_temperature;BMP_pressure;BME280_temperature;BME280_humidity;BME280_pressure;Samples;Min_cycle;Max_cycle;Signal;HPM_P1;HPM_P2
2022/06/27 00:01:58;;;;;;;3.67;3.33;;;19.90;89.80;;;;;;5056584;28;20028;-75
2022/06/27 00:04:24;;;;;;;4.22;3.83;;;19.90;90.50;;;;;;5056407;28;20450;-75
2022/06/27 00:06:50;;;;;;;6.55;3.53;;;19.80;90.80;;;;;;5056670;28;20080;-72
2022/06/27 00:09:15;;;;;;;4.15;3.75;;;19.80;90.40;;;;;;5038422;28;20044;-72
2022/06/27 00:11:41;;;;;;;4.20;3.80;;;19.80;92.20;;;;;;5039134;28;20013;-74
2022/06/27 00:14:07;;;;;;;4.13;3.58;;;19.80;91.40;;;;;;5076187;28;20029;-75
2022/06/27 00:16:33;;;;;;;7.18;3.58;;;19.70;90.80;;;;;;5076266;28;20417;-72
2022/06/27 00:18:58;;;;;;;3.75;3.25;;;19.70;92.50;;;;;;5076117;28;20020;-74
2022/06/27 00:21:24;;;;;;;5.50;3.58;;;19.70;93.30;;;;;;5067468;28;20082;-75
2022/06/27 00:23:50;;;;;;;3.88;3.45;;;19.60;92.90;;;;;;5055977;28;20098;-75
2022/06/27 00:26:16;;;;;;;4.50;3.90;;;19.60;94.50;;;;;;5056166;28;20456;-73
2022/06/27 00:28:41;;;;;;;4.28;3.75;;;19.60;94.70;;;;;;5056025;28;20032;-75
2022/06/27 00:31:07;;;;;;;6.07;3.95;;;19.60;95.40;;;;;;5056126;28;20075;-74
2022/06/27 00:33:33;;;;;;;4.47;4.07;;;19.50;95.90;;;;;;5055826;28;20013;-73
2022/06/27 00:35:58;;;;;;;4.47;4.00;;;19.50;96.70;;;;;;5054560;28;20070;-72
2022/06/27 00:38:24;;;;;;;5.95;3.42;;;19.40;96.00;;;;;;5056132;28;20075;-72
2022/06/27 00:40:50;;;;;;;4.53;3.60;;;19.40;95.50;;;;;;5055424;28;20033;-74
2022/06/27 00:43:16;;;;;;;5.97;3.67;;;19.40;98.10;;;;;;5055878;28;20407;-73
2022/06/27 00:45:41;;;;;;;4.50;3.92;;;19.40;97.30;;;;;;5059552;28;20165;-75
2022/06/27 00:48:07;;;;;;;6.72;4.13;;;19.40;98.20;;;;;;5057959;28;20023;-74
2022/06/27 00:50:33;;;;;;;5.20;4.05;;;19.30;98.80;;;;;;5057795;28;20103;-75
2022/06/27 00:52:59;;;;;;;5.70;4.03;;;19.30;99.90;;;;;;5057555;28;20085;-73
2022/06/27 00:55:25;;;;;;;4.25;3.78;;;19.20;99.90;;;;;;5057547;28;20032;-75
2022/06/27 00:57:52;;;;;;;4.43;4.07;;;19.10;99.90;;;;;;5057653;28;20013;-75
2022/06/27 01:00:18;;;;;;;4.63;3.85;;;19.10;99.90;;;;;;5075504;28;20035;-75
2022/06/27 01:02:43;;;;;;;6.53;3.97;;;19.00;99.90;;;;;;5075545;28;20100;-73
2022/06/27 01:05:12;;;;;;;5.03;4.05;;;19.00;99.90;;;;;;5075275;28;20056;-75
2022/06/27 01:07:38;;;;;;;6.82;3.78;;;19.00;99.90;;;;;;5057511;28;20070;-73
2022/06/27 01:10:05;;;;;;;5.10;4.00;;;19.00;99.90;;;;;;5075322;28;20093;-75
2022/06/27 01:12:32;;;;;;;7.18;4.38;;;18.90;99.90;;;;;;5049507;28;20021;-75
2022/06/27 01:14:58;;;;;;;4.28;3.85;;;18.90;99.90;;;;;;5054673;28;20056;-75
2022/06/27 01:17:24;;;;;;;5.25;4.30;;;18.90;99.90;;;;;;5055387;28;20426;-73
2022/06/27 01:19:50;;;;;;;6.75;4.47;;;18.90;99.90;;;;;;5055146;28;20025;-75
2022/06/27 01:22:18;;;;;;;5.55;3.92;;;18.80;99.90;;;;;;5037383;28;20039;-74
2022/06/27 01:24:44;;;;;;;4.40;4.10;;;18.80;99.90;;;;;;5054960;28;20025;-72
2022/06/27 01:27:09;;;;;;;4.25;3.85;;;18.80;99.90;;;;;;5037179;28;20066;-75
2022/06/27 01:29:36;;;;;;;4.82;4.43;;;18.80;99.90;;;;;;5037059;28;20121;-75
2022/06/27 01:32:02;;;;;;;5.95;4.72;;;18.80;99.90;;;;;;5037176;28;20037;-73
2022/06/27 01:34:28;;;;;;;7.70;4.22;;;18.80;99.90;;;;;;5054914;28;20399;-72
2022/06/27 01:36:54;;;;;;;5.60;4.55;;;18.70;99.90;;;;;;5054964;28;20028;-72
2022/06/27 01:39:20;;;;;;;4.57;4.18;;;18.70;99.90;;;;;;5036796;28;20060;-72
2022/06/27 01:41:53;;;;;;;5.93;4.13;;;18.60;99.90;;;;;;5054793;28;20017;-73
2022/06/27 01:44:19;;;;;;;;;;;18.60;99.90;;;;;;5055104;28;20586;-72
2022/06/27 01:47:00;;;;;;;4.63;4.22;;;18.50;99.90;;;;;;5067604;28;19912;-75
2022/06/27 01:49:28;;;;;;;7.40;5.78;;;18.50;99.90;;;;;;5056593;28;20025;-73
2022/06/27 01:51:55;;;;;;;6.43;4.78;;;18.40;99.90;;;;;;5074661;28;20070;-72
2022/06/27 01:54:22;;;;;;;5.10;4.60;;;18.40;99.90;;;;;;5074424;28;20037;-74
2022/06/27 01:56:49;;;;;;;6.00;5.18;;;18.40;99.90;;;;;;5056521;28;20033;-72
2022/06/27 01:59:17;;;;;;;6.35;4.82;;;18.30;99.90;;;;;;5056413;28;20111;-75
2022/06/27 02:01:44;;;;;;;5.68;4.63;;;18.30;99.90;;;;;;5074387;28;20029;-75
2022/06/27 02:04:12;;;;;;;7.78;4.63;;;18.30;99.90;;;;;;5074382;28;20125;-72
2022/06/27 02:06:39;;;;;;;5.38;4.50;;;18.30;99.90;;;;;;5074131;28;20060;-74
2022/06/27 02:09:07;;;;;;;6.75;5.15;;;18.30;99.90;;;;;;5074232;28;20389;-72
2022/06/27 02:11:33;;;;;;;7.05;4.53;;;18.30;99.90;;;;;;5073755;28;20016;-74
2022/06/27 02:13:59;;;;;;;6.10;5.60;;;18.20;99.90;;;;;;5054350;28;20048;-72
2022/06/27 02:16:25;;;;;;;5.47;4.25;;;18.20;99.90;;;;;;5036233;28;20071;-72
2022/06/27 02:18:52;;;;;;;12.43;5.18;;;18.20;99.90;;;;;;5054184;28;20455;-73
2022/06/27 02:21:24;;;;;;;8.57;5.05;;;18.20;99.90;;;;;;5054024;28;20469;-75
2022/06/27 02:23:50;;;;;;;7.13;5.43;;;18.20;99.90;;;;;;5053958;28;20070;-72
2022/06/27 02:26:18;;;;;;;5.43;4.90;;;18.20;99.90;;;;;;5036147;28;20043;-73
2022/06/27 02:28:44;;;;;;;8.38;4.97;;;18.20;99.90;;;;;;5054075;28;20017;-76
2022/06/27 02:31:11;;;;;;;7.10;4.90;;;18.20;99.90;;;;;;5053864;28;20096;-75
2022/06/27 02:33:42;;;;;;;5.85;5.25;;;18.20;99.90;;;;;;5053987;28;20031;-76
2022/06/27 02:36:15;;;;;;;6.22;5.05;;;18.10;99.90;;;;;;5035914;28;20186;-76
2022/06/27 02:38:42;;;;;;;6.97;5.13;;;18.10;99.90;;;;;;5036053;28;20021;-75
2022/06/27 02:41:12;;;;;;;7.43;4.97;;;18.10;99.90;;;;;;5035749;28;20017;-75
2022/06/27 02:43:39;;;;;;;7.07;5.30;;;18.20;99.90;;;;;;5035891;28;20509;-75
2022/06/27 02:46:06;;;;;;;7.00;4.70;;;18.10;99.90;;;;;;5061269;28;20086;-76
2022/06/27 02:48:32;;;;;;;5.47;4.90;;;18.10;99.90;;;;;;5073529;28;20028;-75
2022/06/27 02:51:05;;;;;;;5.40;4.90;;;18.00;99.90;;;;;;5055672;28;20031;-75
2022/06/27 02:53:42;;;;;;;6.57;5.07;;;18.00;99.90;;;;;;5073713;28;20020;-74
2022/06/27 02:56:10;;;;;;;6.63;4.75;;;18.00;99.90;;;;;;5066905;28;20119;-75
2022/06/27 02:58:47;;;;;;;7.72;5.35;;;18.00;99.90;;;;;;5035133;28;20031;-73
2022/06/27 03:01:15;;;;;;;6.93;5.13;;;18.00;99.90;;;;;;5053391;28;20119;-75
2022/06/27 03:03:42;;;;;;;15.18;5.68;;;18.00;99.90;;;;;;5053303;28;20059;-74
2022/06/27 03:06:08;;;;;;;6.55;5.00;;;18.00;99.90;;;;;;5052821;28;20124;-74
2022/06/27 03:08:39;;;;;;;7.82;5.22;;;18.10;99.90;;;;;;5053489;28;20440;-74
2022/06/27 03:11:05;;;;;;;8.80;6.60;;;18.10;99.90;;;;;;5053239;28;20032;-73
2022/06/27 03:13:31;;;;;;;5.40;4.95;;;18.10;99.90;;;;;;5052131;28;20027;-73
2022/06/27 03:15:57;;;;;;;11.48;5.15;;;18.10;99.90;;;;;;5051330;28;20033;-75
2022/06/27 03:18:22;;;;;;;5.85;5.22;;;18.10;99.90;;;;;;5053278;28;20017;-73
2022/06/27 03:20:48;;;;;;;6.47;5.57;;;18.20;99.90;;;;;;5051935;28;20036;-73
2022/06/27 03:23:15;;;;;;;7.50;6.47;;;18.20;99.90;;;;;;5053354;28;20025;-73
2022/06/27 03:25:41;;;;;;;5.35;4.93;;;18.40;99.90;;;;;;5053045;28;20471;-74
2022/06/27 03:28:07;;;;;;;6.05;4.65;;;18.50;99.90;;;;;;5051745;28;20493;-73
2022/06/27 03:30:33;;;;;;;7.20;4.90;;;18.70;99.90;;;;;;5053110;28;20025;-73
2022/06/27 03:32:59;;;;;;;5.72;4.80;;;18.90;99.90;;;;;;5051775;28;20382;-73
2022/06/27 03:35:25;;;;;;;5.32;4.82;;;19.00;99.90;;;;;;5053001;28;20041;-73
2022/06/27 03:37:51;;;;;;;5.20;4.78;;;19.20;99.90;;;;;;5052865;28;20112;-73
2022/06/27 03:40:17;;;;;;;5.22;4.72;;;19.40;99.90;;;;;;5053008;28;20053;-75
2022/06/27 03:42:43;;;;;;;5.38;4.93;;;19.40;99.90;;;;;;5053116;28;20025;-74
2022/06/27 03:45:09;;;;;;;6.80;4.78;;;19.60;99.90;;;;;;5053114;28;20017;-74
2022/06/27 03:47:49;;;;;;;5.18;4.78;;;19.70;99.90;;;;;;5072856;28;20017;-75
2022/06/27 03:50:16;;;;;;;7.70;5.30;;;19.80;99.70;;;;;;5072925;28;20024;-75
2022/06/27 03:52:42;;;;;;;5.32;4.75;;;19.90;97.80;;;;;;5054848;28;20025;-73
2022/06/27 03:55:09;;;;;;;4.72;4.32;;;20.00;96.60;;;;;;5054983;28;20044;-73
2022/06/27 03:57:39;;;;;;;5.45;4.95;;;20.10;97.00;;;;;;5072748;28;20059;-73
2022/06/27 04:00:08;;;;;;;7.90;5.13;;;20.20;96.90;;;;;;5072724;28;20024;-75
2022/06/27 04:02:35;;;;;;;7.82;5.13;;;20.20;97.00;;;;;;5072643;28;20051;-73
2022/06/27 04:05:02;;;;;;;6.32;5.28;;;20.30;95.50;;;;;;5054612;28;20429;-75
2022/06/27 04:07:27;;;;;;;7.85;4.35;;;20.40;96.40;;;;;;5072840;28;20378;-75
2022/06/27 04:09:53;;;;;;;7.00;5.32;;;20.50;93.20;;;;;;5054826;28;20027;-74
2022/06/27 04:12:19;;;;;;;6.78;5.13;;;20.50;93.70;;;;;;5065223;28;20048;-74
2022/06/27 04:14:44;;;;;;;9.23;5.78;;;20.60;92.70;;;;;;5052519;28;20024;-73
2022/06/27 04:17:10;;;;;;;6.20;5.18;;;20.70;92.50;;;;;;5054437;28;20017;-73
2022/06/27 04:19:36;;;;;;;5.80;5.20;;;20.80;90.70;;;;;;5056408;28;20036;-73
2022/06/27 04:22:02;;;;;;;6.97;5.10;;;20.80;92.00;;;;;;5056084;28;20032;-74
2022/06/27 04:24:27;;;;;;;5.60;5.00;;;20.80;90.50;;;;;;5056267;28;20025;-75
2022/06/27 04:26:53;;;;;;;4.65;4.25;;;20.90;90.30;;;;;;5038483;28;20421;-76
2022/06/27 04:29:19;;;;;;;5.53;4.95;;;20.90;91.00;;;;;;5055846;28;20495;-75
2022/06/27 04:31:45;;;;;;;9.05;5.40;;;20.90;89.80;;;;;;5038312;28;20383;-73
2022/06/27 04:34:12;;;;;;;6.28;5.35;;;21.00;91.20;;;;;;5056218;28;20436;-75
2022/06/27 04:36:40;;;;;;;6.07;5.47;;;21.10;92.00;;;;;;5055963;28;20033;-75
2022/06/27 04:39:06;;;;;;;5.28;4.78;;;21.10;90.00;;;;;;5071717;28;20524;-75
2022/06/27 04:41:32;;;;;;;6.68;6.00;;;21.20;88.60;;;;;;5076041;28;20035;-75
2022/06/27 04:43:58;;;;;;;5.95;5.15;;;21.30;88.90;;;;;;5075874;28;20035;-74
2022/06/27 04:46:24;;;;;;;5.18;4.78;;;21.40;87.90;;;;;;5064795;28;20021;-73
2022/06/27 04:48:51;;;;;;;18.65;5.68;;;21.40;87.00;;;;;;5063445;28;20466;-71
2022/06/27 04:51:18;;;;;;;7.65;5.25;;;21.50;85.50;;;;;;5048162;28;20025;-73
2022/06/27 04:53:44;;;;;;;5.50;4.25;;;21.50;87.10;;;;;;5069583;28;20021;-70
2022/06/27 04:56:11;;;;;;;5.65;5.15;;;21.60;85.80;;;;;;5037894;28;20406;-70
2022/06/27 04:58:37;;;;;;;5.80;4.80;;;21.80;85.20;;;;;;5055534;28;20063;-73
2022/06/27 05:01:03;;;;;;;7.18;4.82;;;21.90;85.00;;;;;;5055578;28;20021;-70
2022/06/27 05:03:29;;;;;;;6.70;4.68;;;21.90;81.70;;;;;;5055590;28;20088;-72
2022/06/27 05:05:55;;;;;;;5.82;5.05;;;21.90;82.40;;;;;;5055303;28;20079;-71
2022/06/27 05:08:21;;;;;;;22.58;6.63;;;22.00;83.60;;;;;;5039191;28;20021;-71
2022/06/27 05:10:47;;;;;;;5.00;4.50;;;22.10;82.60;;;;;;5075075;28;20386;-73
2022/06/27 05:13:13;;;;;;;6.57;4.65;;;22.20;80.30;;;;;;5042047;28;20025;-73
2022/06/27 05:15:40;;;;;;;4.63;4.22;;;22.30;80.40;;;;;;5047776;28;20046;-73
2022/06/27 05:18:06;;;;;;;6.00;4.97;;;22.30;78.10;;;;;;5075338;28;20025;-71
2022/06/27 05:20:32;;;;;;;6.13;4.78;;;22.30;78.60;;;;;;5075134;28;20064;-70
2022/06/27 05:23:00;;;;;;;10.55;5.22;;;22.40;79.10;;;;;;5075157;28;20020;-70
2022/06/27 05:25:26;;;;;;;5.28;4.78;;;22.40;76.40;;;;;;5075269;28;20474;-72
2022/06/27 05:27:52;;;;;;;5.00;4.55;;;22.50;76.40;;;;;;5056667;28;20109;-71
2022/06/27 05:30:18;;;;;;;7.50;5.07;;;22.50;76.20;;;;;;5075169;28;20052;-73
2022/06/27 05:32:44;;;;;;;4.68;4.20;;;22.60;77.50;;;;;;5056906;28;20405;-70
2022/06/27 05:35:10;;;;;;;5.65;4.43;;;22.70;75.80;;;;;;5072701;28;20082;-71
2022/06/27 05:37:38;;;;;;;6.63;5.82;;;22.90;75.00;;;;;;5055222;28;20035;-70
2022/06/27 05:40:07;;;;;;;5.32;4.78;;;23.00;74.40;;;;;;5073432;28;20389;-71
2022/06/27 05:42:34;;;;;;;4.85;4.30;;;23.10;74.20;;;;;;5066931;28;20021;-70
2022/06/27 05:45:03;;;;;;;6.40;4.93;;;23.20;74.80;;;;;;5066995;28;20032;-72
2022/06/27 05:47:30;;;;;;;5.55;4.60;;;23.10;73.20;;;;;;5052995;28;20040;-70
2022/06/27 05:49:56;;;;;;;9.63;4.50;;;23.20;72.30;;;;;;5069519;28;20500;-71
2022/06/27 05:52:22;;;;;;;5.05;4.53;;;23.30;72.30;;;;;;5036662;28;20017;-71
2022/06/27 05:54:48;;;;;;;5.10;4.60;;;23.40;72.20;;;;;;5071003;28;20028;-70
2022/06/27 05:57:15;;;;;;;5.57;4.15;;;23.40;71.40;;;;;;5074008;28;20028;-72
2022/06/27 05:59:41;;;;;;;4.75;4.35;;;23.50;72.20;;;;;;5074379;28;20367;-72
2022/06/27 06:02:07;;;;;;;6.13;4.50;;;23.60;71.40;;;;;;5073287;28;20099;-72
2022/06/27 06:04:33;;;;;;;5.35;4.20;;;23.70;71.40;;;;;;5072879;28;20564;-71
2022/06/27 06:06:59;;;;;;;4.88;4.20;;;23.80;71.30;;;;;;5074107;28;20052;-72
2022/06/27 06:09:25;;;;;;;4.85;4.45;;;23.90;70.40;;;;;;5074465;28;20478;-70
2022/06/27 06:11:53;;;;;;;5.35;4.22;;;24.00;68.60;;;;;;5070290;28;20017;-71
2022/06/27 06:14:21;;;;;;;9.40;5.18;;;24.10;68.80;;;;;;5036455;28;20086;-70
2022/06/27 06:16:48;;;;;;;5.13;4.03;;;24.30;68.40;;;;;;5035619;28;20399;-70
2022/06/27 06:19:15;;;;;;;4.88;4.43;;;24.40;69.30;;;;;;5054442;28;20379;-71
2022/06/27 06:21:40;;;;;;;5.05;4.65;;;24.50;68.30;;;;;;5054302;28;20479;-73
2022/06/27 06:24:06;;;;;;;5.50;5.00;;;24.70;67.50;;;;;;5054261;28;20037;-73
2022/06/27 06:26:33;;;;;;;5.35;4.07;;;24.80;66.50;;;;;;5036359;28;20029;-74
2022/06/27 06:29:05;;;;;;;8.98;5.20;;;24.90;66.90;;;;;;5054218;28;20028;-74
2022/06/27 06:31:32;;;;;;;7.60;4.22;;;25.10;64.60;;;;;;5054171;28;20025;-73
2022/06/27 06:33:57;;;;;;;4.80;4.30;;;25.20;63.90;;;;;;5036107;28;20017;-73
2022/06/27 06:36:23;;;;;;;6.03;4.43;;;25.30;64.50;;;;;;5036049;28;20375;-73
2022/06/27 06:38:51;;;;;;;5.07;4.20;;;25.30;63.80;;;;;;5053489;28;20025;-72
2022/06/27 06:41:17;;;;;;;5.45;4.50;;;25.40;64.60;;;;;;5036066;28;20029;-74
2022/06/27 06:43:44;;;;;;;11.95;5.47;;;25.50;63.30;;;;;;5053983;28;20025;-73
2022/06/27 06:46:10;;;;;;;5.22;4.72;;;25.80;63.00;;;;;;5063508;28;20156;-73
2022/06/27 06:48:37;;;;;;;4.70;4.25;;;25.90;60.30;;;;;;5073984;28;20115;-75
2022/06/27 06:51:04;;;;;;;4.30;3.90;;;26.10;60.80;;;;;;5055781;28;20036;-74
2022/06/27 06:53:30;;;;;;;6.93;4.50;;;26.10;59.30;;;;;;5073867;28;20457;-73
2022/06/27 06:55:57;;;;;;;4.85;4.45;;;26.20;59.90;;;;;;5073551;28;20039;-75
2022/06/27 06:58:25;;;;;;;4.22;3.92;;;26.30;59.40;;;;;;5089367;28;20020;-74
2022/06/27 07:00:52;;;;;;;4.07;3.78;;;26.50;60.00;;;;;;5073572;28;20358;-72
2022/06/27 07:03:18;;;;;;;4.68;4.38;;;26.50;59.70;;;;;;5073262;28;20091;-74
2022/06/27 07:05:45;;;;;;;4.45;4.05;;;26.70;59.50;;;;;;5072880;28;20106;-74
2022/06/27 07:08:12;;;;;;;5.50;4.63;;;26.70;58.60;;;;;;5055575;28;20074;-73
2022/06/27 07:10:39;;;;;;;7.18;4.93;;;26.80;56.80;;;;;;5073392;28;20032;-75
2022/06/27 07:13:05;;;;;;;6.95;4.68;;;26.90;55.60;;;;;;5040754;28;20028;-75
2022/06/27 07:15:33;;;;;;;4.93;4.53;;;27.00;56.10;;;;;;5053253;28;20154;-72
2022/06/27 07:18:02;;;;;;;7.15;4.22;;;27.30;56.10;;;;;;5053437;28;20028;-72
2022/06/27 07:20:30;;;;;;;5.97;4.65;;;27.30;54.60;;;;;;5053503;28;20051;-74
2022/06/27 07:22:55;;;;;;;6.60;4.40;;;27.30;54.80;;;;;;5053413;28;20475;-74
2022/06/27 07:25:22;;;;;;;6.05;3.83;;;27.40;55.20;;;;;;5053209;28;20041;-74
2022/06/27 07:27:49;;;;;;;4.07;3.72;;;27.60;55.60;;;;;;5053446;28;20024;-73
2022/06/27 07:30:15;;;;;;;7.63;4.50;;;27.70;54.80;;;;;;5053233;28;20047;-72
2022/06/27 07:32:42;;;;;;;6.97;4.60;;;27.80;54.70;;;;;;5053213;28;20032;-75
2022/06/27 07:35:11;;;;;;;4.30;4.00;;;28.00;54.20;;;;;;5053012;28;20083;-73
2022/06/27 07:37:44;;;;;;;6.50;4.10;;;28.10;54.50;;;;;;5053411;28;20028;-74
2022/06/27 07:40:11;;;;;;;5.65;4.22;;;28.20;54.00;;;;;;5053261;28;20021;-72
2022/06/27 07:42:38;;;;;;;4.82;3.97;;;28.30;54.80;;;;;;5035381;28;20025;-75
2022/06/27 07:45:05;;;;;;;4.90;4.15;;;28.40;55.00;;;;;;5053755;28;20040;-72
2022/06/27 07:47:31;;;;;;;8.88;4.63;;;28.40;54.00;;;;;;5055226;28;20033;-74
2022/06/27 07:49:57;;;;;;;5.60;4.95;;;28.50;52.80;;;;;;5073132;28;20437;-72
2022/06/27 07:52:23;;;;;;;4.65;4.03;;;28.50;52.10;;;;;;5059234;28;20067;-74
2022/06/27 07:54:51;;;;;;;4.85;4.20;;;28.60;52.40;;;;;;5077008;28;20107;-72
2022/06/27 07:57:19;;;;;;;4.28;3.88;;;28.60;52.20;;;;;;5077274;28;20020;-74
2022/06/27 07:59:44;;;;;;;7.95;4.30;;;28.50;51.40;;;;;;5058953;28;20028;-72
2022/06/27 08:02:10;;;;;;;4.47;3.97;;;28.40;51.60;;;;;;5077145;28;20024;-75
2022/06/27 08:04:37;;;;;;;5.07;4.22;;;28.30;51.50;;;;;;5076904;28;20531;-72
2022/06/27 08:07:06;;;;;;;5.80;4.22;;;28.30;52.30;;;;;;5077049;28;20482;-72
2022/06/27 08:09:32;;;;;;;4.40;4.00;;;28.50;52.80;;;;;;5076975;28;20028;-72
2022/06/27 08:11:59;;;;;;;5.32;4.78;;;28.40;51.40;;;;;;5071040;28;20086;-73
2022/06/27 08:14:25;;;;;;;5.53;4.85;;;28.40;51.40;;;;;;5056764;28;20020;-72
2022/06/27 08:16:52;;;;;;;4.95;4.55;;;28.50;51.80;;;;;;5022229;28;20064;-74
2022/06/27 08:19:19;;;;;;;5.22;4.03;;;28.60;51.40;;;;;;5056926;28;20017;-72
2022/06/27 08:21:47;;;;;;;5.07;4.57;;;28.60;51.80;;;;;;5056714;28;20399;-74
2022/06/27 08:24:16;;;;;;;5.35;4.85;;;28.60;51.30;;;;;;5056384;28;20060;-73
2022/06/27 08:26:44;;;;;;;6.78;5.15;;;28.70;51.40;;;;;;5056463;28;20029;-72
2022/06/27 08:29:11;;;;;;;5.20;4.65;;;28.70;51.30;;;;;;5056554;28;20021;-74
2022/06/27 08:31:41;;;;;;;5.32;4.82;;;28.80;51.70;;;;;;5056282;28;20025;-75
2022/06/27 08:34:07;;;;;;;4.80;4.50;;;28.80;51.40;;;;;;5056527;28;20100;-72
2022/06/27 08:36:36;;;;;;;6.75;5.00;;;28.90;51.20;;;;;;5056178;28;20090;-72
2022/06/27 08:39:05;;;;;;;5.57;4.18;;;28.80;51.70;;;;;;5056338;28;20029;-74
2022/06/27 08:41:31;;;;;;;6.35;4.60;;;28.80;52.00;;;;;;5056185;28;20032;-72
2022/06/27 08:44:00;;;;;;;7.93;4.50;;;28.80;52.60;;;;;;5056427;28;20494;-75
2022/06/27 08:46:27;;;;;;;5.18;4.70;;;28.80;51.80;;;;;;5050538;28;20157;-75
2022/06/27 08:48:55;;;;;;;5.47;4.95;;;28.90;52.30;;;;;;5076267;28;20024;-74
2022/06/27 08:51:21;;;;;;;7.43;5.07;;;28.90;52.70;;;;;;5091708;28;20393;-75
2022/06/27 08:53:51;;;;;;;6.55;5.10;;;29.00;52.70;;;;;;5076034;28;20416;-73
2022/06/27 08:56:18;;;;;;;5.55;5.05;;;28.90;52.20;;;;;;5058207;28;20383;-72
2022/06/27 08:58:46;;;;;;;5.38;4.97;;;28.90;52.50;;;;;;5075973;28;20016;-74
2022/06/27 09:01:16;;;;;;;5.22;4.82;;;28.90;52.60;;;;;;5075847;28;20033;-73
2022/06/27 09:03:58;;;;;;;5.60;4.97;;;28.90;52.90;;;;;;5057524;28;20021;-72
2022/06/27 09:06:26;;;;;;;9.23;5.03;;;28.80;52.70;;;;;;5075797;28;20056;-72
2022/06/27 09:09:05;;;;;;;5.55;4.72;;;29.00;53.20;;;;;;5057781;28;20025;-75
2022/06/27 09:11:33;;;;;;;5.60;4.88;;;29.10;53.00;;;;;;5073260;28;20024;-72
2022/06/27 09:14:00;;;;;;;5.82;4.97;;;29.10;52.90;;;;;;5055707;28;20025;-72
2022/06/27 09:16:27;;;;;;;6.07;5.50;;;29.10;52.60;;;;;;5055475;28;20032;-73
2022/06/27 09:18:53;;;;;;;6.28;5.25;;;29.00;52.80;;;;;;5055548;28;20013;-73
2022/06/27 09:21:20;;;;;;;5.85;5.10;;;29.00;53.00;;;;;;5055394;28;20036;-75
2022/06/27 09:23:58;;;;;;;5.20;4.72;;;29.10;53.20;;;;;;5054951;28;20025;-73
2022/06/27 09:26:26;;;;;;;5.65;5.15;;;29.00;53.20;;;;;;5037484;28;20131;-74
2022/06/27 09:28:54;;;;;;;6.07;5.32;;;29.10;53.30;;;;;;5055378;28;20029;-75
2022/06/27 09:31:25;;;;;;;6.93;5.55;;;29.20;53.60;;;;;;5055144;28;20032;-75
2022/06/27 09:34:00;;;;;;;6.22;5.72;;;29.20;53.30;;;;;;5037387;28;20044;-73
2022/06/27 09:36:28;;;;;;;6.43;5.82;;;29.40;53.30;;;;;;5037174;28;20040;-74
2022/06/27 09:38:56;;;;;;;6.13;5.63;;;29.20;54.00;;;;;;5037334;28;20013;-75
2022/06/27 09:41:26;;;;;;;6.22;5.68;;;29.30;55.00;;;;;;5055129;28;20033;-72
2022/06/27 09:43:54;;;;;;;6.65;5.90;;;29.40;52.40;;;;;;5055429;28;20024;-74
2022/06/27 09:46:23;;;;;;;6.20;5.03;;;29.50;53.40;;;;;;5048918;28;20115;-72
2022/06/27 09:48:52;;;;;;;6.53;5.93;;;29.80;52.50;;;;;;5075008;28;20024;-75
2022/06/27 09:51:18;;;;;;;5.03;4.65;;;30.00;52.40;;;;;;5074885;28;20522;-74
2022/06/27 09:53:50;;;;;;;5.72;5.15;;;30.40;50.90;;;;;;5074956;28;20033;-72
2022/06/27 09:56:17;;;;;;;;;;;30.30;51.20;;;;;;5057241;28;20505;-74
2022/06/27 09:58:44;;;;;;;6.22;4.70;;;30.20;51.90;;;;;;5056917;28;20376;-72
2022/06/27 10:01:10;;;;;;;6.40;4.55;;;30.40;51.30;;;;;;5074751;28;20021;-72
2022/06/27 10:03:37;;;;;;;8.60;4.97;;;30.60;50.40;;;;;;5074660;28;20056;-72
2022/06/27 10:06:05;;;;;;;7.53;5.32;;;30.50;49.50;;;;;;5074580;28;20386;-73
2022/06/27 10:08:33;;;;;;;5.40;4.88;;;30.70;49.00;;;;;;5074552;28;20016;-74
2022/06/27 10:11:04;;;;;;;5.03;4.63;;;30.80;48.40;;;;;;5074576;28;20020;-72
2022/06/27 10:13:30;;;;;;;5.75;5.28;;;30.80;48.10;;;;;;5055937;28;20033;-72
2022/06/27 10:16:05;;;;;;;6.20;5.15;;;30.80;48.10;;;;;;5073820;28;20080;-73
2022/06/27 10:19:03;;;;;;;5.35;4.60;;;31.00;48.90;;;;;;5074495;28;20020;-75
2022/06/27 10:21:39;;;;;;;5.40;4.90;;;31.00;49.50;;;;;;5056371;28;20386;-72
2022/06/27 10:24:27;;;;;;;5.70;5.15;;;31.10;47.70;;;;;;5074321;28;20103;-72
2022/06/27 10:26:58;;;;;;;9.02;5.10;;;30.90;47.30;;;;;;5056306;28;20036;-69
2022/06/27 10:29:27;;;;;;;5.45;4.95;;;31.00;47.40;;;;;;5074093;28;20096;-69
2022/06/27 10:31:53;;;;;;;8.02;5.75;;;31.20;48.10;;;;;;5074196;28;20032;-72
2022/06/27 10:34:44;;;;;;;7.75;5.07;;;31.40;47.60;;;;;;5074084;28;20029;-72
2022/06/27 10:37:25;;;;;;;6.30;5.32;;;31.10;47.30;;;;;;5055938;28;20459;-72
2022/06/27 10:39:51;;;;;;;7.97;5.00;;;31.20;48.20;;;;;;5074216;28;20478;-72
2022/06/27 10:42:48;;;;;;;5.25;4.70;;;31.00;48.60;;;;;;5073932;28;20067;-69
2022/06/27 10:45:19;;;;;;;6.40;5.00;;;31.30;48.30;;;;;;5070733;28;20052;-69
2022/06/27 10:47:46;;;;;;;8.65;5.40;;;31.30;46.70;;;;;;5053707;28;20106;-71
2022/06/27 10:50:13;;;;;;;8.98;5.85;;;31.10;45.90;;;;;;5053819;28;20017;-69
2022/06/27 10:52:39;;;;;;;5.60;5.05;;;31.20;46.80;;;;;;5035855;28;20024;-72
2022/06/27 10:55:24;;;;;;;7.63;4.95;;;31.20;45.70;;;;;;5053503;28;20029;-71
2022/06/27 10:57:51;;;;;;;6.85;4.72;;;31.30;45.60;;;;;;5053841;28;20037;-72
2022/06/27 11:00:40;;;;;;;6.43;4.60;;;31.30;45.30;;;;;;5053633;28;20025;-69
2022/06/27 11:03:19;;;;;;;6.70;5.78;;;31.60;44.10;;;;;;5053643;28;20021;-69
2022/06/27 11:06:13;;;;;;;5.97;5.25;;;31.70;45.30;;;;;;5053474;28;20048;-69
2022/06/27 11:08:41;;;;;;;5.45;5.03;;;31.60;44.90;;;;;;5053562;28;20013;-70
2022/06/27 11:11:07;;;;;;;6.20;4.90;;;31.70;44.40;;;;;;5053551;28;20096;-72
2022/06/27 11:13:47;;;;;;;5.13;4.60;;;31.60;42.10;;;;;;5073165;28;20024;-72
2022/06/27 11:16:18;;;;;;;5.72;4.88;;;31.60;43.90;;;;;;5073542;28;20071;-72
2022/06/27 11:18:50;;;;;;;5.55;5.05;;;31.50;43.10;;;;;;5073405;28;20450;-72
2022/06/27 11:21:21;;;;;;;6.70;4.75;;;31.60;43.10;;;;;;5073435;28;20062;-72
2022/06/27 11:23:54;;;;;;;4.78;4.28;;;31.70;43.50;;;;;;5055442;28;20394;-72
2022/06/27 11:26:22;;;;;;;5.65;5.15;;;31.70;42.40;;;;;;5073118;28;20111;-69
2022/06/27 11:34:18;;;;;;;6.57;4.25;;;31.50;41.80;;;;;;5073264;28;20078;-71
2022/06/27 11:36:45;;;;;;;7.03;4.72;;;31.50;41.30;;;;;;5073253;28;20028;-73
2022/06/27 11:39:11;;;;;;;4.57;4.20;;;31.80;42.30;;;;;;5073347;28;20017;-70
2022/06/27 11:41:39;;;;;;;4.85;4.43;;;32.00;39.90;;;;;;5055280;28;20050;-70
2022/06/27 11:44:14;;;;;;;5.15;4.40;;;32.10;39.90;;;;;;5055061;28;20474;-69
2022/06/27 11:46:49;;;;;;;5.55;5.05;;;32.20;41.40;;;;;;5057811;28;20028;-69
2022/06/27 11:49:20;;;;;;;6.30;5.00;;;32.40;40.40;;;;;;5053293;28;20025;-69
2022/06/27 11:51:48;;;;;;;5.32;4.57;;;32.30;40.50;;;;;;5053292;28;20028;-69
2022/06/27 11:54:17;;;;;;;7.28;5.18;;;32.20;41.00;;;;;;5052998;28;20017;-72
2022/06/27 11:56:45;;;;;;;5.25;4.78;;;32.10;42.00;;;;;;5053066;28;20375;-72
2022/06/27 11:59:13;;;;;;;4.88;4.38;;;32.30;41.80;;;;;;5053060;28;20013;-72
2022/06/27 12:01:59;;;;;;;4.68;4.28;;;32.30;40.30;;;;;;5052949;28;20025;-73
2022/06/27 12:04:30;;;;;;;5.90;4.30;;;32.30;39.50;;;;;;5052888;28;20036;-72
2022/06/27 12:07:07;;;;;;;8.50;4.90;;;32.20;39.80;;;;;;5053006;28;20407;-69
2022/06/27 12:09:50;;;;;;;5.38;4.75;;;32.30;41.20;;;;;;5052939;28;20158;-72
2022/06/27 12:12:33;;;;;;;6.70;5.40;;;32.20;40.80;;;;;;5062201;28;20032;-69
2022/06/27 12:14:59;;;;;;;5.47;4.80;;;32.30;41.10;;;;;;5072817;28;20036;-69
2022/06/27 12:17:38;;;;;;;6.10;4.43;;;32.40;41.80;;;;;;5072963;28;20100;-72
2022/06/27 12:20:07;;;;;;;8.23;5.88;;;32.70;40.60;;;;;;5072879;28;20025;-69
2022/06/27 12:22:33;;;;;;;6.43;5.47;;;32.90;39.50;;;;;;5073206;28;20468;-72
2022/06/27 12:24:59;;;;;;;12.93;4.90;;;32.80;40.10;;;;;;5072744;28;20056;-69
2022/06/27 12:27:24;;;;;;;6.55;4.80;;;33.00;40.00;;;;;;5054887;28;20490;-70
2022/06/27 12:29:50;;;;;;;8.43;5.35;;;32.90;39.30;;;;;;5072673;28;20032;-71
2022/06/27 12:32:16;;;;;;;7.40;5.45;;;32.60;39.40;;;;;;5072789;28;20103;-72
2022/06/27 12:34:41;;;;;;;5.80;4.55;;;32.70;40.00;;;;;;5072696;28;20032;-69
2022/06/27 12:37:07;;;;;;;5.65;5.07;;;32.80;41.10;;;;;;5072850;28;20078;-71
2022/06/27 12:39:33;;;;;;;5.90;5.40;;;32.90;40.20;;;;;;5058335;28;20040;-69
2022/06/27 12:41:58;;;;;;;6.28;4.88;;;32.90;39.10;;;;;;5076435;28;20043;-72
2022/06/27 12:44:25;;;;;;;5.65;4.97;;;32.90;40.10;;;;;;5076244;28;20033;-72
2022/06/27 12:46:51;;;;;;;8.20;4.95;;;32.80;39.10;;;;;;5058879;28;20055;-74
2022/06/27 12:49:17;;;;;;;5.68;5.18;;;32.80;39.90;;;;;;5037918;28;20521;-74
2022/06/27 12:51:43;;;;;;;6.20;5.20;;;33.00;40.70;;;;;;5056152;28;20082;-74
2022/06/27 12:54:08;;;;;;;5.43;5.00;;;32.90;39.30;;;;;;5056055;28;20036;-74
2022/06/27 12:56:34;;;;;;;10.18;5.20;;;32.70;38.50;;;;;;5055906;28;20033;-71
2022/06/27 12:58:59;;;;;;;5.93;5.00;;;32.80;38.60;;;;;;5055980;28;20024;-72